sensor_id;sensor_type;location;lat;lon;timestamp;temperature;humidity
45685;DHT22;46836;48.388;16.210;2023-06-22T00:00:03;21.90;99.90
45685;DHT22;46836;48.388;16.210;2023-06-22T00:02:35;21.90;99.90
45685;DHT22;46836;48.388;16.210;2023-06-22T00:05:02;21.90;99.90
45685;DHT22;46836;48.388;16.210;2023-06-22T00:07:29;21.90;99.90
45685;DHT22;46836;48.388;16.210;2023-06-22T00:09:57;21.90;99.90
45685;DHT22;46836;48.388;16.210;2023-06-22T00:12:24;21.80;99.90
45685;DHT22;46836;48.388;16.210;2023-06-22T00:14:51;21.80;99.90
45685;DHT22;46836;48.388;16.210;2023-06-22T00:17:18;21.70;99.90
45685;DHT22;46836;48.388;16.210;2023-06-22T00:19:47;21.70;99.90
45685;DHT22;46836;48.388;16.210;2023-06-22T00:22:14;21.70;99.90
45685;DHT22;46836;48.388;16.210;2023-06-22T00:24:41;21.70;99.90
45685;DHT22;46836;48.388;16.210;2023-06-22T00:27:08;21.70;99.90
45685;DHT22;46836;48.388;16.210;2023-06-22T00:29:35;21.70;99.90
45685;DHT22;46836;48.388;16.210;2023-06-22T00:32:02;21.70;99.90
45685;DHT22;46836;48.388;16.210;2023-06-22T00:34:30;21.60;99.90
45685;DHT22;46836;48.388;16.210;2023-06-22T00:36:57;21.50;99.90
45685;DHT22;46836;48.388;16.210;2023-06-22T00:39:26;21.50;99.90
45685;DHT22;46836;48.388;16.210;2023-06-22T00:41:53;21.50;99.90
45685;DHT22;46836;48.388;16.210;2023-06-22T00:44:21;21.50;99.90
45685;DHT22;46836;48.388;16.210;2023-06-22T00:46:48;21.40;99.90
45685;DHT22;46836;48.388;16.210;2023-06-22T00:49:15;21.40;99.90
45685;DHT22;46836;48.388;16.210;2023-06-22T00:51:42;21.40;99.90
45685;DHT22;46836;48.388;16.210;2023-06-22T00:54:12;21.40;99.90
45685;DHT22;46836;48.388;16.210;2023-06-22T00:56:41;21.30;99.90
45685;DHT22;46836;48.388;16.210;2023-06-22T00:59:09;21.30;99.90
45685;DHT22;46836;48.388;16.210;2023-06-22T01:01:39;21.30;99.90
45685;DHT22;46836;48.388;16.210;2023-06-22T01:04:08;21.30;99.90
45685;DHT22;46836;48.388;16.210;2023-06-22T01:06:41;21.30;99.90
45685;DHT22;46836;48.388;16.210;2023-06-22T01:09:15;21.30;99.90
45685;DHT22;46836;48.388;16.210;2023-06-22T01:11:57;21.30;99.90
45685;DHT22;46836;48.388;16.210;2023-06-22T01:17:24;21.30;99.90
45685;DHT22;46836;48.388;16.210;2023-06-22T01:19:55;21.20;99.90
45685;DHT22;46836;48.388;16.210;2023-06-22T01:22:30;21.20;99.90
45685;DHT22;46836;48.388;16.210;2023-06-22T01:25:26;21.10;99.90
45685;DHT22;46836;48.388;16.210;2023-06-22T01:30:34;21.00;99.90
45685;DHT22;46836;48.388;16.210;2023-06-22T01:33:03;21.00;99.90
45685;DHT22;46836;48.388;16.210;2023-06-22T01:35:31;21.10;99.90
45685;DHT22;46836;48.388;16.210;2023-06-22T01:37:59;21.00;99.90
45685;DHT22;46836;48.388;16.210;2023-06-22T01:40:27;21.00;99.90
45685;DHT22;46836;48.388;16.210;2023-06-22T01:42:55;21.00;99.90
45685;DHT22;46836;48.388;16.210;2023-06-22T01:45:23;20.90;99.90
45685;DHT22;46836;48.388;16.210;2023-06-22T01:47:51;21.00;99.90
45685;DHT22;46836;48.388;16.210;2023-06-22T01:50:18;20.90;99.90
45685;DHT22;46836;48.388;16.210;2023-06-22T01:52:46;21.00;99.90
45685;DHT22;46836;48.388;16.210;2023-06-22T01:55:13;21.00;99.90
45685;DHT22;46836;48.388;16.210;2023-06-22T01:57:40;20.90;99.90
45685;DHT22;46836;48.388;16.210;2023-06-22T02:00:14;20.90;99.90
45685;DHT22;46836;48.388;16.210;2023-06-22T02:03:11;21.00;99.90
45685;DHT22;46836;48.388;16.210;2023-06-22T02:05:48;20.90;99.90
45685;DHT22;46836;48.388;16.210;2023-06-22T02:08:20;20.80;99.90
45685;DHT22;46836;48.388;16.210;2023-06-22T02:10:49;20.80;99.90
45685;DHT22;46836;48.388;16.210;2023-06-22T02:13:17;20.80;99.90
45685;DHT22;46836;48.388;16.210;2023-06-22T02:15:46;20.70;99.90
45685;DHT22;46836;48.388;16.210;2023-06-22T02:18:14;20.70;99.90
45685;DHT22;46836;48.388;16.210;2023-06-22T02:20:41;20.70;99.90
45685;DHT22;46836;48.388;16.210;2023-06-22T02:23:08;20.70;99.90
45685;DHT22;46836;48.388;16.210;2023-06-22T02:25:36;20.70;99.90
45685;DHT22;46836;48.388;16.210;2023-06-22T02:28:03;20.70;99.90
45685;DHT22;46836;48.388;16.210;2023-06-22T02:30:31;20.60;99.90
45685;DHT22;46836;48.388;16.210;2023-06-22T02:32:58;20.60;99.90
45685;DHT22;46836;48.388;16.210;2023-06-22T02:35:27;20.60;99.90
45685;DHT22;46836;48.388;16.210;2023-06-22T02:37:59;20.60;99.90
45685;DHT22;46836;48.388;16.210;2023-06-22T02:40:28;20.50;99.90
45685;DHT22;46836;48.388;16.210;2023-06-22T02:42:59;20.50;99.90
45685;DHT22;46836;48.388;16.210;2023-06-22T02:45:29;20.40;99.90
45685;DHT22;46836;48.388;16.210;2023-06-22T02:47:57;20.40;99.90
45685;DHT22;46836;48.388;16.210;2023-06-22T02:50:24;20.40;99.90
45685;DHT22;46836;48.388;16.210;2023-06-22T02:52:52;20.30;99.90
45685;DHT22;46836;48.388;16.210;2023-06-22T02:55:19;20.30;99.90
45685;DHT22;46836;48.388;16.210;2023-06-22T02:57:46;20.30;99.90
45685;DHT22;46836;48.388;16.210;2023-06-22T03:00:14;20.30;99.90
45685;DHT22;46836;48.388;16.210;2023-06-22T03:02:46;20.30;99.90
45685;DHT22;46836;48.388;16.210;2023-06-22T03:05:15;20.20;99.90
45685;DHT22;46836;48.388;16.210;2023-06-22T03:07:45;20.20;99.90
45685;DHT22;46836;48.388;16.210;2023-06-22T03:10:13;20.20;99.90
45685;DHT22;46836;48.388;16.210;2023-06-22T03:12:42;20.30;99.90
45685;DHT22;46836;48.388;16.210;2023-06-22T03:15:11;20.30;99.90
45685;DHT22;46836;48.388;16.210;2023-06-22T03:17:40;20.30;99.90
45685;DHT22;46836;48.388;16.210;2023-06-22T03:20:09;20.30;99.90
45685;DHT22;46836;48.388;16.210;2023-06-22T03:22:39;20.20;99.90
45685;DHT22;46836;48.388;16.210;2023-06-22T03:25:08;20.20;99.90
45685;DHT22;46836;48.388;16.210;2023-06-22T03:27:41;20.20;99.90
45685;DHT22;46836;48.388;16.210;2023-06-22T03:30:10;20.30;99.90
45685;DHT22;46836;48.388;16.210;2023-06-22T03:32:38;20.20;99.90
45685;DHT22;46836;48.388;16.210;2023-06-22T03:35:05;20.20;99.90
45685;DHT22;46836;48.388;16.210;2023-06-22T03:37:33;20.20;99.90
45685;DHT22;46836;48.388;16.210;2023-06-22T03:40:00;20.20;99.90
45685;DHT22;46836;48.388;16.210;2023-06-22T03:42:27;20.20;99.90
45685;DHT22;46836;48.388;16.210;2023-06-22T03:44:54;20.30;99.90
45685;DHT22;46836;48.388;16.210;2023-06-22T03:47:22;20.30;99.90
45685;DHT22;46836;48.388;16.210;2023-06-22T03:49:50;20.40;99.90
45685;DHT22;46836;48.388;16.210;2023-06-22T03:52:22;20.40;99.90
45685;DHT22;46836;48.388;16.210;2023-06-22T03:54:49;20.40;99.90
45685;DHT22;46836;48.388;16.210;2023-06-22T03:57:16;20.50;99.90
45685;DHT22;46836;48.388;16.210;2023-06-22T03:59:43;20.50;99.90
45685;DHT22;46836;48.388;16.210;2023-06-22T04:02:10;20.50;99.90
45685;DHT22;46836;48.388;16.210;2023-06-22T04:04:37;20.60;99.90
45685;DHT22;46836;48.388;16.210;2023-06-22T04:07:06;20.60;99.90
45685;DHT22;46836;48.388;16.210;2023-06-22T04:09:34;20.70;99.90
45685;DHT22;46836;48.388;16.210;2023-06-22T04:12:02;20.70;99.90
45685;DHT22;46836;48.388;16.210;2023-06-22T04:14:29;20.80;99.90
45685;DHT22;46836;48.388;16.210;2023-06-22T04:16:58;20.80;99.90
45685;DHT22;46836;48.388;16.210;2023-06-22T04:19:25;20.80;99.90
45685;DHT22;46836;48.388;16.210;2023-06-22T04:21:52;20.80;99.90
45685;DHT22;46836;48.388;16.210;2023-06-22T04:24:19;20.90;99.90
45685;DHT22;46836;48.388;16.210;2023-06-22T04:26:46;20.90;99.90
45685;DHT22;46836;48.388;16.210;2023-06-22T04:29:14;21.00;99.90
45685;DHT22;46836;48.388;16.210;2023-06-22T04:31:41;21.10;99.90
45685;DHT22;46836;48.388;16.210;2023-06-22T04:34:09;21.10;99.90
45685;DHT22;46836;48.388;16.210;2023-06-22T04:36:38;21.20;99.90
45685;DHT22;46836;48.388;16.210;2023-06-22T04:39:10;21.20;99.90
45685;DHT22;46836;48.388;16.210;2023-06-22T04:41:40;21.30;99.90
45685;DHT22;46836;48.388;16.210;2023-06-22T04:46:38;21.50;99.90
45685;DHT22;46836;48.388;16.210;2023-06-22T04:49:09;21.50;99.90
45685;DHT22;46836;48.388;16.210;2023-06-22T04:51:40;21.60;99.90
45685;DHT22;46836;48.388;16.210;2023-06-22T04:54:08;21.60;99.90
45685;DHT22;46836;48.388;16.210;2023-06-22T04:56:36;21.60;99.90
45685;DHT22;46836;48.388;16.210;2023-06-22T04:59:03;21.70;99.90
45685;DHT22;46836;48.388;16.210;2023-06-22T05:01:30;21.60;99.90
45685;DHT22;46836;48.388;16.210;2023-06-22T05:04:01;21.50;99.90
45685;DHT22;46836;48.388;16.210;2023-06-22T05:06:31;21.60;99.90
45685;DHT22;46836;48.388;16.210;2023-06-22T05:08:58;21.70;99.90
45685;DHT22;46836;48.388;16.210;2023-06-22T05:11:26;21.90;99.90
45685;DHT22;46836;48.388;16.210;2023-06-22T05:13:54;22.00;99.90
45685;DHT22;46836;48.388;16.210;2023-06-22T05:16:22;22.00;99.90
45685;DHT22;46836;48.388;16.210;2023-06-22T05:18:55;22.10;99.90
45685;DHT22;46836;48.388;16.210;2023-06-22T05:21:24;22.20;99.90
45685;DHT22;46836;48.388;16.210;2023-06-22T05:23:53;22.20;99.90
45685;DHT22;46836;48.388;16.210;2023-06-22T05:26:20;22.30;99.90
45685;DHT22;46836;48.388;16.210;2023-06-22T05:28:48;22.30;99.90
45685;DHT22;46836;48.388;16.210;2023-06-22T05:31:16;22.40;99.90
45685;DHT22;46836;48.388;16.210;2023-06-22T05:33:44;22.40;99.90
45685;DHT22;46836;48.388;16.210;2023-06-22T05:36:11;22.50;99.90
45685;DHT22;46836;48.388;16.210;2023-06-22T05:38:40;22.60;99.90
45685;DHT22;46836;48.388;16.210;2023-06-22T05:41:08;22.70;99.90
45685;DHT22;46836;48.388;16.210;2023-06-22T05:43:35;22.70;99.90
45685;DHT22;46836;48.388;16.210;2023-06-22T05:46:03;22.90;99.90
45685;DHT22;46836;48.388;16.210;2023-06-22T05:48:30;22.90;99.90
45685;DHT22;46836;48.388;16.210;2023-06-22T05:50:58;23.00;99.90
45685;DHT22;46836;48.388;16.210;2023-06-22T05:53:25;23.10;99.90
45685;DHT22;46836;48.388;16.210;2023-06-22T05:55:52;23.20;99.90
45685;DHT22;46836;48.388;16.210;2023-06-22T05:58:19;23.20;99.90
45685;DHT22;46836;48.388;16.210;2023-06-22T06:00:47;23.30;99.90
45685;DHT22;46836;48.388;16.210;2023-06-22T06:03:14;23.40;99.90
45685;DHT22;46836;48.388;16.210;2023-06-22T06:05:44;23.50;99.90
45685;DHT22;46836;48.388;16.210;2023-06-22T06:08:12;23.60;99.90
45685;DHT22;46836;48.388;16.210;2023-06-22T06:10:39;23.70;99.90
45685;DHT22;46836;48.388;16.210;2023-06-22T06:13:06;23.80;99.90
45685;DHT22;46836;48.388;16.210;2023-06-22T06:15:34;23.90;99.90
45685;DHT22;46836;48.388;16.210;2023-06-22T06:18:01;23.90;99.90
45685;DHT22;46836;48.388;16.210;2023-06-22T06:20:32;24.00;99.90
45685;DHT22;46836;48.388;16.210;2023-06-22T06:23:00;24.10;99.90
45685;DHT22;46836;48.388;16.210;2023-06-22T06:25:27;24.10;99.90
45685;DHT22;46836;48.388;16.210;2023-06-22T06:27:54;24.20;99.90
45685;DHT22;46836;48.388;16.210;2023-06-22T06:30:22;24.20;99.90
45685;DHT22;46836;48.388;16.210;2023-06-22T06:32:50;24.30;99.90
45685;DHT22;46836;48.388;16.210;2023-06-22T06:35:17;24.40;99.90
45685;DHT22;46836;48.388;16.210;2023-06-22T06:37:47;24.50;99.90
45685;DHT22;46836;48.388;16.210;2023-06-22T06:40:16;24.60;99.90
45685;DHT22;46836;48.388;16.210;2023-06-22T06:42:47;24.70;99.90
45685;DHT22;46836;48.388;16.210;2023-06-22T06:47:43;24.90;99.90
45685;DHT22;46836;48.388;16.210;2023-06-22T06:50:11;25.00;99.90
45685;DHT22;46836;48.388;16.210;2023-06-22T06:52:38;25.10;99.90
45685;DHT22;46836;48.388;16.210;2023-06-22T06:55:06;25.20;99.90
45685;DHT22;46836;48.388;16.210;2023-06-22T06:57:41;25.30;99.90
45685;DHT22;46836;48.388;16.210;2023-06-22T07:00:11;25.40;99.90
45685;DHT22;46836;48.388;16.210;2023-06-22T07:02:42;25.50;99.90
45685;DHT22;46836;48.388;16.210;2023-06-22T07:05:11;25.50;99.90
45685;DHT22;46836;48.388;16.210;2023-06-22T07:07:39;25.60;99.90
45685;DHT22;46836;48.388;16.210;2023-06-22T07:10:09;25.70;99.90
45685;DHT22;46836;48.388;16.210;2023-06-22T07:12:36;25.80;99.90
45685;DHT22;46836;48.388;16.210;2023-06-22T07:15:05;25.80;99.90
45685;DHT22;46836;48.388;16.210;2023-06-22T07:17:36;25.90;99.90
45685;DHT22;46836;48.388;16.210;2023-06-22T07:20:04;26.00;99.90
45685;DHT22;46836;48.388;16.210;2023-06-22T07:22:40;26.10;99.90
45685;DHT22;46836;48.388;16.210;2023-06-22T07:25:08;26.10;99.90
45685;DHT22;46836;48.388;16.210;2023-06-22T07:27:57;26.20;99.90
45685;DHT22;46836;48.388;16.210;2023-06-22T07:30:25;26.30;99.90
45685;DHT22;46836;48.388;16.210;2023-06-22T07:32:52;26.30;99.90
45685;DHT22;46836;48.388;16.210;2023-06-22T07:35:19;26.40;99.90
45685;DHT22;46836;48.388;16.210;2023-06-22T07:37:47;26.40;99.90
45685;DHT22;46836;48.388;16.210;2023-06-22T07:40:14;26.50;99.90
45685;DHT22;46836;48.388;16.210;2023-06-22T07:42:41;26.50;99.90
45685;DHT22;46836;48.388;16.210;2023-06-22T07:45:08;26.60;99.90
45685;DHT22;46836;48.388;16.210;2023-06-22T07:47:36;26.70;99.90
45685;DHT22;46836;48.388;16.210;2023-06-22T07:50:04;26.80;99.90
45685;DHT22;46836;48.388;16.210;2023-06-22T07:52:31;26.90;99.90
45685;DHT22;46836;48.388;16.210;2023-06-22T07:54:59;26.90;99.90
45685;DHT22;46836;48.388;16.210;2023-06-22T07:57:26;27.00;99.90
45685;DHT22;46836;48.388;16.210;2023-06-22T08:00:00;27.00;99.90
45685;DHT22;46836;48.388;16.210;2023-06-22T08:02:27;27.10;99.90
45685;DHT22;46836;48.388;16.210;2023-06-22T08:04:54;27.10;99.90
45685;DHT22;46836;48.388;16.210;2023-06-22T08:07:41;27.20;99.90
45685;DHT22;46836;48.388;16.210;2023-06-22T08:10:13;27.20;99.90
45685;DHT22;46836;48.388;16.210;2023-06-22T08:12:41;27.30;99.90
45685;DHT22;46836;48.388;16.210;2023-06-22T08:15:08;27.40;99.90
45685;DHT22;46836;48.388;16.210;2023-06-22T08:17:37;27.50;99.90
45685;DHT22;46836;48.388;16.210;2023-06-22T08:20:06;27.60;99.90
45685;DHT22;46836;48.388;16.210;2023-06-22T08:22:41;27.60;99.90
45685;DHT22;46836;48.388;16.210;2023-06-22T08:25:09;27.70;99.90
45685;DHT22;46836;48.388;16.210;2023-06-22T08:27:36;27.80;99.90
45685;DHT22;46836;48.388;16.210;2023-06-22T08:30:04;27.80;99.90
45685;DHT22;46836;48.388;16.210;2023-06-22T08:32:31;27.90;99.90
45685;DHT22;46836;48.388;16.210;2023-06-22T08:35:00;28.00;99.90
45685;DHT22;46836;48.388;16.210;2023-06-22T08:37:28;28.10;99.90
45685;DHT22;46836;48.388;16.210;2023-06-22T08:40:03;28.10;99.90
45685;DHT22;46836;48.388;16.210;2023-06-22T08:42:36;28.20;99.90
45685;DHT22;46836;48.388;16.210;2023-06-22T08:45:03;28.20;99.90
45685;DHT22;46836;48.388;16.210;2023-06-22T08:47:30;28.30;99.90
45685;DHT22;46836;48.388;16.210;2023-06-22T08:49:57;28.40;99.90
45685;DHT22;46836;48.388;16.210;2023-06-22T08:52:25;28.40;99.90
45685;DHT22;46836;48.388;16.210;2023-06-22T08:54:52;28.60;99.90
45685;DHT22;46836;48.388;16.210;2023-06-22T08:57:21;28.60;99.90
45685;DHT22;46836;48.388;16.210;2023-06-22T08:59:48;28.70;99.90
45685;DHT22;46836;48.388;16.210;2023-06-22T09:02:15;28.70;99.90
45685;DHT22;46836;48.388;16.210;2023-06-22T09:04:43;28.80;99.90
45685;DHT22;46836;48.388;16.210;2023-06-22T09:07:11;28.90;99.90
45685;DHT22;46836;48.388;16.210;2023-06-22T09:09:38;29.00;99.90
45685;DHT22;46836;48.388;16.210;2023-06-22T09:12:06;29.10;99.90
45685;DHT22;46836;48.388;16.210;2023-06-22T09:14:33;29.20;99.90
45685;DHT22;46836;48.388;16.210;2023-06-22T09:17:00;29.30;99.90
45685;DHT22;46836;48.388;16.210;2023-06-22T09:19:27;29.40;99.90
45685;DHT22;46836;48.388;16.210;2023-06-22T09:21:54;29.40;99.90
45685;DHT22;46836;48.388;16.210;2023-06-22T09:24:21;29.40;99.90
45685;DHT22;46836;48.388;16.210;2023-06-22T09:26:49;29.50;99.90
45685;DHT22;46836;48.388;16.210;2023-06-22T09:29:16;29.50;99.90
45685;DHT22;46836;48.388;16.210;2023-06-22T09:31:43;29.60;99.90
45685;DHT22;46836;48.388;16.210;2023-06-22T09:34:11;29.70;99.90
45685;DHT22;46836;48.388;16.210;2023-06-22T09:36:38;29.80;99.90
45685;DHT22;46836;48.388;16.210;2023-06-22T09:39:06;29.80;99.90
45685;DHT22;46836;48.388;16.210;2023-06-22T09:41:33;29.80;99.90
45685;DHT22;46836;48.388;16.210;2023-06-22T09:44:00;29.90;99.90
45685;DHT22;46836;48.388;16.210;2023-06-22T09:46:27;30.00;99.90
45685;DHT22;46836;48.388;16.210;2023-06-22T09:48:55;30.00;99.90
45685;DHT22;46836;48.388;16.210;2023-06-22T09:51:23;30.10;99.90
45685;DHT22;46836;48.388;16.210;2023-06-22T09:53:51;30.20;99.90
45685;DHT22;46836;48.388;16.210;2023-06-22T09:56:20;30.30;99.90
45685;DHT22;46836;48.388;16.210;2023-06-22T09:58:47;30.40;99.90
45685;DHT22;46836;48.388;16.210;2023-06-22T10:01:18;30.40;99.90
45685;DHT22;46836;48.388;16.210;2023-06-22T10:03:48;30.50;99.90
45685;DHT22;46836;48.388;16.210;2023-06-22T10:06:15;30.50;99.90
45685;DHT22;46836;48.388;16.210;2023-06-22T10:08:42;30.60;99.90
45685;DHT22;46836;48.388;16.210;2023-06-22T10:11:09;30.60;99.90
45685;DHT22;46836;48.388;16.210;2023-06-22T10:13:36;30.70;99.90
45685;DHT22;46836;48.388;16.210;2023-06-22T10:16:03;30.70;99.90
45685;DHT22;46836;48.388;16.210;2023-06-22T10:18:30;30.80;99.90
45685;DHT22;46836;48.388;16.210;2023-06-22T10:20:57;30.90;99.90
45685;DHT22;46836;48.388;16.210;2023-06-22T10:23:24;30.90;99.90
45685;DHT22;46836;48.388;16.210;2023-06-22T10:25:51;30.90;99.90
45685;DHT22;46836;48.388;16.210;2023-06-22T10:28:19;31.00;99.90
45685;DHT22;46836;48.388;16.210;2023-06-22T10:30:45;31.00;99.90
45685;DHT22;46836;48.388;16.210;2023-06-22T10:33:13;31.00;99.90
45685;DHT22;46836;48.388;16.210;2023-06-22T10:35:40;31.10;99.90
45685;DHT22;46836;48.388;16.210;2023-06-22T10:38:07;31.10;99.90
45685;DHT22;46836;48.388;16.210;2023-06-22T10:40:34;31.10;99.90
45685;DHT22;46836;48.388;16.210;2023-06-22T10:43:01;31.10;99.90
45685;DHT22;46836;48.388;16.210;2023-06-22T10:45:28;31.30;99.90
45685;DHT22;46836;48.388;16.210;2023-06-22T10:47:56;31.30;99.90
45685;DHT22;46836;48.388;16.210;2023-06-22T10:50:24;31.40;99.90
45685;DHT22;46836;48.388;16.210;2023-06-22T10:52:52;31.50;99.90
45685;DHT22;46836;48.388;16.210;2023-06-22T10:55:19;31.50;99.90
45685;DHT22;46836;48.388;16.210;2023-06-22T10:57:46;31.50;99.90
45685;DHT22;46836;48.388;16.210;2023-06-22T11:00:15;31.50;99.90
45685;DHT22;46836;48.388;16.210;2023-06-22T11:02:43;31.50;99.90
45685;DHT22;46836;48.388;16.210;2023-06-22T11:05:11;31.50;99.90
45685;DHT22;46836;48.388;16.210;2023-06-22T11:07:42;31.50;99.90
45685;DHT22;46836;48.388;16.210;2023-06-22T11:10:11;31.60;99.90
45685;DHT22;46836;48.388;16.210;2023-06-22T11:12:38;31.60;99.90
45685;DHT22;46836;48.388;16.210;2023-06-22T11:15:06;31.70;99.90
45685;DHT22;46836;48.388;16.210;2023-06-22T11:17:34;31.70;99.90
45685;DHT22;46836;48.388;16.210;2023-06-22T11:20:02;31.80;99.90
45685;DHT22;46836;48.388;16.210;2023-06-22T11:22:32;31.90;99.90
45685;DHT22;46836;48.388;16.210;2023-06-22T11:25:00;31.90;99.90
45685;DHT22;46836;48.388;16.210;2023-06-22T11:27:27;32.00;99.90
45685;DHT22;46836;48.388;16.210;2023-06-22T11:29:55;32.00;99.90
45685;DHT22;46836;48.388;16.210;2023-06-22T11:32:22;32.00;99.90
45685;DHT22;46836;48.388;16.210;2023-06-22T11:34:50;32.10;99.90
45685;DHT22;46836;48.388;16.210;2023-06-22T11:37:17;32.10;99.90
45685;DHT22;46836;48.388;16.210;2023-06-22T11:39:44;32.20;99.90
45685;DHT22;46836;48.388;16.210;2023-06-22T11:42:25;32.20;99.90
45685;DHT22;46836;48.388;16.210;2023-06-22T11:44:52;32.30;99.90
45685;DHT22;46836;48.388;16.210;2023-06-22T11:47:19;32.40;99.90
45685;DHT22;46836;48.388;16.210;2023-06-22T11:49:47;32.50;99.90
45685;DHT22;46836;48.388;16.210;2023-06-22T11:52:14;32.60;99.90
45685;DHT22;46836;48.388;16.210;2023-06-22T11:54:41;32.60;99.90
45685;DHT22;46836;48.388;16.210;2023-06-22T11:57:08;32.60;99.90
45685;DHT22;46836;48.388;16.210;2023-06-22T11:59:35;32.70;99.90
45685;DHT22;46836;48.388;16.210;2023-06-22T12:02:02;32.60;99.90
45685;DHT22;46836;48.388;16.210;2023-06-22T12:04:30;32.70;99.90
45685;DHT22;46836;48.388;16.210;2023-06-22T12:06:57;32.70;99.90
45685;DHT22;46836;48.388;16.210;2023-06-22T12:09:25;32.70;99.90
45685;DHT22;46836;48.388;16.210;2023-06-22T12:11:52;32.70;99.90
45685;DHT22;46836;48.388;16.210;2023-06-22T12:14:19;32.80;99.90
45685;DHT22;46836;48.388;16.210;2023-06-22T12:16:46;32.80;99.90
45685;DHT22;46836;48.388;16.210;2023-06-22T12:19:13;32.90;99.90
45685;DHT22;46836;48.388;16.210;2023-06-22T12:21:40;32.90;99.90
45685;DHT22;46836;48.388;16.210;2023-06-22T12:24:07;32.80;99.90
45685;DHT22;46836;48.388;16.210;2023-06-22T12:26:34;32.70;99.90
45685;DHT22;46836;48.388;16.210;2023-06-22T12:29:01;32.60;99.90
45685;DHT22;46836;48.388;16.210;2023-06-22T12:31:28;32.60;99.90
45685;DHT22;46836;48.388;16.210;2023-06-22T12:33:55;32.60;99.90
45685;DHT22;46836;48.388;16.210;2023-06-22T12:36:22;32.60;99.90
45685;DHT22;46836;48.388;16.210;2023-06-22T12:38:51;32.70;99.90
45685;DHT22;46836;48.388;16.210;2023-06-22T12:41:21;32.70;99.90
45685;DHT22;46836;48.388;16.210;2023-06-22T12:43:49;32.80;99.90
45685;DHT22;46836;48.388;16.210;2023-06-22T12:46:16;32.80;99.90
45685;DHT22;46836;48.388;16.210;2023-06-22T12:48:43;32.90;99.90
45685;DHT22;46836;48.388;16.210;2023-06-22T12:51:10;32.90;99.90
45685;DHT22;46836;48.388;16.210;2023-06-22T12:53:37;32.90;99.90
45685;DHT22;46836;48.388;16.210;2023-06-22T12:56:04;33.00;99.90
45685;DHT22;46836;48.388;16.210;2023-06-22T12:58:31;33.00;99.90
45685;DHT22;46836;48.388;16.210;2023-06-22T13:00:58;33.10;99.90
45685;DHT22;46836;48.388;16.210;2023-06-22T13:03:25;33.10;99.90
45685;DHT22;46836;48.388;16.210;2023-06-22T13:05:54;33.10;99.90
45685;DHT22;46836;48.388;16.210;2023-06-22T13:08:21;33.20;99.90
45685;DHT22;46836;48.388;16.210;2023-06-22T13:11:01;33.20;99.90
45685;DHT22;46836;48.388;16.210;2023-06-22T13:13:28;33.20;99.90
45685;DHT22;46836;48.388;16.210;2023-06-22T13:15:55;33.30;99.90
45685;DHT22;46836;48.388;16.210;2023-06-22T13:18:22;33.30;99.90
45685;DHT22;46836;48.388;16.210;2023-06-22T13:20:49;33.30;99.90
45685;DHT22;46836;48.388;16.210;2023-06-22T13:23:16;33.30;99.90
45685;DHT22;46836;48.388;16.210;2023-06-22T13:25:43;33.30;99.90
45685;DHT22;46836;48.388;16.210;2023-06-22T13:28:10;33.30;99.90
45685;DHT22;46836;48.388;16.210;2023-06-22T13:30:54;33.30;99.90
45685;DHT22;46836;48.388;16.210;2023-06-22T13:33:21;33.30;99.90
45685;DHT22;46836;48.388;16.210;2023-06-22T13:35:48;33.30;99.90
45685;DHT22;46836;48.388;16.210;2023-06-22T13:38:15;33.30;99.90
45685;DHT22;46836;48.388;16.210;2023-06-22T13:40:42;33.30;99.90
45685;DHT22;46836;48.388;16.210;2023-06-22T13:43:09;33.30;99.90
45685;DHT22;46836;48.388;16.210;2023-06-22T13:45:36;33.40;99.90
45685;DHT22;46836;48.388;16.210;2023-06-22T13:48:03;33.40;99.90
45685;DHT22;46836;48.388;16.210;2023-06-22T13:50:31;33.50;99.90
45685;DHT22;46836;48.388;16.210;2023-06-22T13:52:58;33.50;99.90
45685;DHT22;46836;48.388;16.210;2023-06-22T13:55:25;33.40;99.90
45685;DHT22;46836;48.388;16.210;2023-06-22T13:57:53;33.30;99.90
45685;DHT22;46836;48.388;16.210;2023-06-22T14:00:20;33.30;99.90
45685;DHT22;46836;48.388;16.210;2023-06-22T14:02:47;33.30;99.90
45685;DHT22;46836;48.388;16.210;2023-06-22T14:05:14;33.30;99.90
45685;DHT22;46836;48.388;16.210;2023-06-22T14:07:41;33.30;99.90
45685;DHT22;46836;48.388;16.210;2023-06-22T14:10:09;33.30;99.90
45685;DHT22;46836;48.388;16.210;2023-06-22T14:12:36;33.30;99.90
45685;DHT22;46836;48.388;16.210;2023-06-22T14:15:03;33.20;99.90
45685;DHT22;46836;48.388;16.210;2023-06-22T14:17:31;33.20;99.90
45685;DHT22;46836;48.388;16.210;2023-06-22T14:19:58;33.30;99.90
45685;DHT22;46836;48.388;16.210;2023-06-22T14:22:25;33.30;99.90
45685;DHT22;46836;48.388;16.210;2023-06-22T14:24:54;33.20;99.90
45685;DHT22;46836;48.388;16.210;2023-06-22T14:27:22;33.20;99.90
45685;DHT22;46836;48.388;16.210;2023-06-22T14:29:50;33.10;99.90
45685;DHT22;46836;48.388;16.210;2023-06-22T14:32:17;33.10;99.90
45685;DHT22;46836;48.388;16.210;2023-06-22T14:34:44;33.00;99.90
45685;DHT22;46836;48.388;16.210;2023-06-22T14:37:11;33.10;99.90
45685;DHT22;46836;48.388;16.210;2023-06-22T14:39:39;33.10;99.90
45685;DHT22;46836;48.388;16.210;2023-06-22T14:42:09;33.10;99.90
45685;DHT22;46836;48.388;16.210;2023-06-22T14:44:36;33.10;99.90
45685;DHT22;46836;48.388;16.210;2023-06-22T14:47:03;33.10;99.90
45685;DHT22;46836;48.388;16.210;2023-06-22T14:49:30;33.10;99.90
45685;DHT22;46836;48.388;16.210;2023-06-22T14:51:57;33.10;99.90
45685;DHT22;46836;48.388;16.210;2023-06-22T14:54:24;33.20;99.90
45685;DHT22;46836;48.388;16.210;2023-06-22T14:56:51;33.20;99.90
45685;DHT22;46836;48.388;16.210;2023-06-22T14:59:18;33.40;99.90
45685;DHT22;46836;48.388;16.210;2023-06-22T15:01:45;33.50;99.90
45685;DHT22;46836;48.388;16.210;2023-06-22T15:04:14;33.60;99.90
45685;DHT22;46836;48.388;16.210;2023-06-22T15:06:41;33.70;99.90
45685;DHT22;46836;48.388;16.210;2023-06-22T15:09:08;33.80;99.90
45685;DHT22;46836;48.388;16.210;2023-06-22T15:11:35;33.90;99.90
45685;DHT22;46836;48.388;16.210;2023-06-22T15:14:03;34.00;99.90
45685;DHT22;46836;48.388;16.210;2023-06-22T15:16:30;33.90;99.90
45685;DHT22;46836;48.388;16.210;2023-06-22T15:18:57;33.90;99.90
45685;DHT22;46836;48.388;16.210;2023-06-22T15:21:24;33.80;99.90
45685;DHT22;46836;48.388;16.210;2023-06-22T15:23:52;33.90;99.90
45685;DHT22;46836;48.388;16.210;2023-06-22T15:26:19;33.80;99.90
45685;DHT22;46836;48.388;16.210;2023-06-22T15:28:46;33.70;99.90
45685;DHT22;46836;48.388;16.210;2023-06-22T15:31:13;33.40;99.90